createdAt,value
2023-12-30T00:02:18.888Z,99819.50
2023-12-30T00:04:45.416Z,99819.06
2023-12-30T00:07:11.903Z,99819.06
2023-12-30T00:09:38.893Z,99837.31
2023-12-30T00:12:05.924Z,99844.72
2023-12-30T00:14:32.475Z,99852.22
2023-12-30T00:16:59.244Z,99844.28
2023-12-30T00:19:25.931Z,99843.94
2023-12-30T00:21:53.422Z,99847.38
2023-12-30T00:24:19.952Z,99842.00
2023-12-30T00:26:46.575Z,99842.72
2023-12-30T00:29:13.486Z,99841.84
2023-12-30T00:31:40.199Z,99847.38
2023-12-30T00:34:06.816Z,99853.22
2023-12-30T00:36:33.266Z,99859.03
2023-12-30T00:38:59.700Z,99859.16
2023-12-30T00:41:26.664Z,99849.75
2023-12-30T00:43:53.349Z,99853.28
2023-12-30T00:46:20.933Z,99853.34
2023-12-30T00:48:56.498Z,99857.22
2023-12-30T00:51:24.545Z,99868.53
2023-12-30T00:53:50.973Z,99867.72
2023-12-30T00:56:17.379Z,99863.78
2023-12-30T00:58:43.800Z,99866.88
2023-12-30T01:01:10.388Z,99871.16
2023-12-30T01:03:36.886Z,99873.81
2023-12-30T01:06:03.494Z,99866.00
2023-12-30T01:08:29.981Z,99869.06
2023-12-30T01:10:56.534Z,99862.13
2023-12-30T01:13:23.034Z,99860.53
2023-12-30T01:15:49.550Z,99863.63
2023-12-30T01:18:16.192Z,99865.50
2023-12-30T01:20:42.710Z,99863.97
2023-12-30T01:23:09.215Z,99868.63
2023-12-30T01:25:38.926Z,99865.50
2023-12-30T01:28:06.476Z,99861.13
2023-12-30T01:30:32.914Z,99861.53
2023-12-30T01:32:59.748Z,99854.84
2023-12-30T01:35:26.494Z,99862.59
2023-12-30T01:37:53.026Z,99865.78
2023-12-30T01:40:19.536Z,99874.81
2023-12-30T01:42:46.095Z,99877.19
2023-12-30T01:45:13.146Z,99888.06
2023-12-30T01:47:40.426Z,99883.91
2023-12-30T01:50:08.343Z,99885.09
2023-12-30T01:52:36.897Z,99889.34
2023-12-30T01:55:08.832Z,99885.47
2023-12-30T01:57:35.468Z,99873.69
2023-12-30T02:00:02.696Z,99884.38
2023-12-30T02:02:29.828Z,99885.91
2023-12-30T02:04:56.598Z,99885.19
2023-12-30T02:07:23.133Z,99899.28
2023-12-30T02:09:50.450Z,99896.19
2023-12-30T02:12:17.037Z,99903.50
2023-12-30T02:14:43.457Z,99902.00
2023-12-30T02:17:09.950Z,99903.59
2023-12-30T02:19:37.167Z,99905.19
2023-12-30T02:22:03.839Z,99909.13
2023-12-30T02:24:30.449Z,99905.69
2023-12-30T02:26:56.852Z,99908.78
2023-12-30T02:29:23.299Z,99911.94
2023-12-30T02:31:50.032Z,99918.91
2023-12-30T02:34:18.509Z,99914.22
2023-12-30T02:36:46.625Z,99918.03
2023-12-30T02:39:13.706Z,99925.53
2023-12-30T02:41:40.525Z,99923.22
2023-12-30T02:44:07.524Z,99917.97
2023-12-30T02:46:34.014Z,99923.66
2023-12-30T02:49:04.715Z,99919.69
2023-12-30T02:51:31.710Z,99927.03
2023-12-30T02:53:58.245Z,99918.41
2023-12-30T02:56:26.593Z,99925.00
2023-12-30T02:58:58.178Z,99937.16
2023-12-30T03:01:28.554Z,99932.19
2023-12-30T03:03:57.050Z,99923.34
2023-12-30T03:06:24.344Z,99920.13
2023-12-30T03:08:52.027Z,99920.56
2023-12-30T03:11:19.444Z,99924.16
2023-12-30T03:13:46.260Z,99930.34
2023-12-30T03:16:14.863Z,99924.81
2023-12-30T03:18:42.664Z,99919.06
2023-12-30T03:21:11.631Z,99914.81
2023-12-30T03:23:38.717Z,99915.69
2023-12-30T03:26:06.217Z,99925.03
2023-12-30T03:28:32.893Z,99932.66
2023-12-30T03:30:59.459Z,99931.44
2023-12-30T03:33:26.317Z,99919.63
2023-12-30T03:35:53.279Z,99926.34
2023-12-30T03:38:20.104Z,99918.84
2023-12-30T03:40:46.544Z,99923.59
2023-12-30T03:43:14.282Z,99926.69
2023-12-30T03:45:40.965Z,99930.56
2023-12-30T03:48:08.587Z,99936.38
2023-12-30T03:50:37.712Z,99929.88
2023-12-30T03:53:05.225Z,99932.06
2023-12-30T03:55:31.763Z,99940.00
2023-12-30T03:57:58.345Z,99939.09
2023-12-30T04:00:24.775Z,99947.38
2023-12-30T04:02:51.273Z,99952.41
2023-12-30T04:05:17.810Z,99944.66
2023-12-30T04:07:44.286Z,99948.19
2023-12-30T04:10:13.225Z,99961.84
2023-12-30T04:12:40.081Z,99964.16
2023-12-30T04:15:08.134Z,99959.31
2023-12-30T04:17:34.647Z,99967.88
2023-12-30T04:20:01.190Z,99970.06
2023-12-30T04:22:29.694Z,99974.22
2023-12-30T04:24:58.612Z,99986.56
2023-12-30T04:27:25.311Z,99982.69
2023-12-30T04:29:52.025Z,99982.25
2023-12-30T04:32:22.011Z,99989.22
2023-12-30T04:34:50.153Z,99981.72
2023-12-30T04:37:17.190Z,99984.44
2023-12-30T04:39:43.722Z,99986.69
2023-12-30T04:42:11.054Z,99994.06
2023-12-30T04:44:37.471Z,99994.25
2023-12-30T04:47:04.084Z,99997.06
2023-12-30T04:49:30.632Z,99999.78
2023-12-30T04:51:57.145Z,100008.41
2023-12-30T04:54:23.667Z,100011.22
2023-12-30T04:56:50.839Z,100017.13
2023-12-30T04:59:17.243Z,100030.63
2023-12-30T05:01:43.642Z,100028.16
2023-12-30T05:04:10.108Z,100022.34
2023-12-30T05:06:36.678Z,100031.16
2023-12-30T05:09:04.169Z,100030.69
2023-12-30T05:11:30.691Z,100037.69
2023-12-30T05:13:57.244Z,100038.91
2023-12-30T05:16:23.727Z,100039.88
2023-12-30T05:18:50.288Z,100048.97
2023-12-30T05:21:17.753Z,100045.78
2023-12-30T05:23:44.983Z,100045.94
2023-12-30T05:26:15.090Z,100043.16
2023-12-30T05:28:41.634Z,100043.78
2023-12-30T05:31:08.677Z,100055.06
2023-12-30T05:33:35.501Z,100049.59
2023-12-30T05:36:02.017Z,100058.41
2023-12-30T05:38:28.409Z,100058.56
2023-12-30T05:40:54.914Z,100061.28
2023-12-30T05:43:22.119Z,100064.72
2023-12-30T05:45:49.491Z,100070.91
2023-12-30T05:48:16.091Z,100074.09
2023-12-30T05:50:42.598Z,100078.84
2023-12-30T05:53:11.608Z,100086.94
2023-12-30T05:55:39.727Z,100088.09
2023-12-30T05:58:06.395Z,100096.19
2023-12-30T06:00:32.921Z,100101.47
2023-12-30T06:02:59.477Z,100095.59
2023-12-30T06:05:26.963Z,100110.38
2023-12-30T06:07:53.559Z,100117.34
2023-12-30T06:10:20.888Z,100116.91
2023-12-30T06:12:47.447Z,100123.06
2023-12-30T06:15:13.974Z,100127.63
2023-12-30T06:17:40.620Z,100129.69
2023-12-30T06:20:09.407Z,100128.47
2023-12-30T06:22:36.229Z,100137.09
2023-12-30T06:25:04.946Z,100135.06
2023-12-30T06:27:31.565Z,100141.94
2023-12-30T06:29:58.064Z,100139.66
2023-12-30T06:32:24.561Z,100132.50
2023-12-30T06:34:50.988Z,100149.88
2023-12-30T06:37:17.540Z,100148.97
2023-12-30T06:39:44.675Z,100145.00
2023-12-30T06:42:11.131Z,100141.81
2023-12-30T06:44:37.609Z,100157.31
2023-12-30T06:47:06.269Z,100153.53
2023-12-30T06:49:33.192Z,100154.59
2023-12-30T06:51:59.702Z,100161.97
2023-12-30T06:54:26.999Z,100159.50
2023-12-30T06:56:54.771Z,100169.59
2023-12-30T06:59:21.550Z,100173.38
2023-12-30T07:01:47.976Z,100179.75
2023-12-30T07:04:15.396Z,100183.72
2023-12-30T07:06:42.097Z,100180.34
2023-12-30T07:09:08.559Z,100189.56
2023-12-30T07:11:35.133Z,100196.38
2023-12-30T07:14:01.698Z,100206.38
2023-12-30T07:16:28.294Z,100214.34
2023-12-30T07:18:54.872Z,100221.28
2023-12-30T07:21:21.440Z,100217.88
2023-12-30T07:23:47.897Z,100226.25
2023-12-30T07:26:14.480Z,100222.38
2023-12-30T07:28:40.950Z,100227.31
2023-12-30T07:31:07.885Z,100227.19
2023-12-30T07:33:36.639Z,100234.22
2023-12-30T07:36:05.228Z,100237.28
2023-12-30T07:38:32.090Z,100235.69
2023-12-30T07:40:58.509Z,100245.59
2023-12-30T07:43:25.617Z,100254.19
2023-12-30T07:45:52.196Z,100250.00
2023-12-30T07:48:18.665Z,100254.75
2023-12-30T07:50:45.048Z,100252.28
2023-12-30T07:53:11.504Z,100254.66
2023-12-30T07:55:37.930Z,100256.25
2023-12-30T07:58:04.727Z,100262.84
2023-12-30T08:00:31.372Z,100266.38
2023-12-30T08:02:57.861Z,100261.63
2023-12-30T08:05:24.278Z,100269.34
2023-12-30T08:07:50.812Z,100276.50
2023-12-30T08:10:19.463Z,100276.59
2023-12-30T08:12:45.940Z,100281.38
2023-12-30T08:15:12.491Z,100279.78
2023-12-30T08:17:39.241Z,100288.31
2023-12-30T08:20:06.630Z,100280.91
2023-12-30T08:22:33.577Z,100277.81
2023-12-30T08:25:00.409Z,100276.38
2023-12-30T08:27:27.150Z,100267.25
2023-12-30T08:29:53.775Z,100272.81
2023-12-30T08:32:20.175Z,100275.44
2023-12-30T08:34:46.707Z,100280.13
2023-12-30T08:37:13.295Z,100285.47
2023-12-30T08:39:39.798Z,100297.09
2023-12-30T08:42:06.935Z,100292.50
2023-12-30T08:44:33.778Z,100295.59
2023-12-30T08:47:00.552Z,100298.88
2023-12-30T08:49:27.215Z,100292.38
2023-12-30T08:51:53.739Z,100297.75
2023-12-30T08:54:20.219Z,100300.34
2023-12-30T08:56:46.709Z,100303.41
2023-12-30T08:59:13.201Z,100309.75
2023-12-30T09:01:39.842Z,100313.56
2023-12-30T09:04:06.475Z,100314.66
2023-12-30T09:06:33.036Z,100325.13
2023-12-30T09:08:59.460Z,100331.63
2023-12-30T09:11:26.064Z,100340.94
2023-12-30T09:13:53.639Z,100345.81
2023-12-30T09:16:20.418Z,100350.47
2023-12-30T09:18:47.038Z,100356.88
2023-12-30T09:21:14.261Z,100351.16
2023-12-30T09:23:41.430Z,100358.41
2023-12-30T09:26:07.862Z,100358.88
2023-12-30T09:28:34.750Z,100370.72
2023-12-30T09:31:02.288Z,100379.69
2023-12-30T09:33:29.445Z,100377.41
2023-12-30T09:35:56.274Z,100384.47
2023-12-30T09:38:26.563Z,100388.44
2023-12-30T09:40:54.945Z,100384.78
2023-12-30T09:43:30.550Z,100398.44
2023-12-30T09:45:59.210Z,100393.03
2023-12-30T09:48:28.325Z,100394.84
2023-12-30T09:50:56.634Z,100392.78
2023-12-30T09:53:24.681Z,100393.16
2023-12-30T09:55:52.394Z,100412.78
2023-12-30T09:58:20.457Z,100403.25
2023-12-30T10:00:47.395Z,100400.75
2023-12-30T10:03:15.604Z,100402.69
2023-12-30T10:05:42.665Z,100408.25
2023-12-30T10:08:09.527Z,100408.38
2023-12-30T10:10:45.363Z,100417.69
2023-12-30T10:13:13.661Z,100417.78
2023-12-30T10:15:41.599Z,100419.53
2023-12-30T10:18:09.082Z,100416.91
2023-12-30T10:20:42.022Z,100432.78
2023-12-30T10:23:08.618Z,100435.09
2023-12-30T10:25:35.816Z,100435.00
2023-12-30T10:28:03.561Z,100434.19
2023-12-30T10:30:31.681Z,100443.53
2023-12-30T10:33:15.328Z,100446.94
2023-12-30T10:35:45.419Z,100437.59
2023-12-30T10:38:14.101Z,100437.16
2023-12-30T10:40:41.566Z,100446.94
2023-12-30T10:43:09.789Z,100437.72
2023-12-30T10:45:36.752Z,100444.88
2023-12-30T10:48:07.219Z,100439.00
2023-12-30T10:50:38.388Z,100439.75
2023-12-30T10:53:17.156Z,100446.03
2023-12-30T10:55:50.160Z,100443.31
2023-12-30T10:58:21.604Z,100442.72
2023-12-30T11:00:58.304Z,100450.56
2023-12-30T11:03:26.811Z,100462.41
2023-12-30T11:06:11.370Z,100462.66
2023-12-30T11:08:38.101Z,100456.72
2023-12-30T11:11:05.762Z,100465.38
2023-12-30T11:13:36.516Z,100454.44
2023-12-30T11:16:33.619Z,100472.41
2023-12-30T11:19:00.484Z,100466.06
2023-12-30T11:21:44.753Z,100463.41
2023-12-30T11:24:12.450Z,100459.00
2023-12-30T11:26:46.735Z,100466.28
2023-12-30T11:29:17.054Z,100467.97
2023-12-30T11:31:45.504Z,100462.31
2023-12-30T11:34:14.493Z,100459.69
2023-12-30T11:36:42.466Z,100474.00
2023-12-30T11:39:09.037Z,100471.25
2023-12-30T11:41:36.316Z,100462.25
2023-12-30T11:44:04.595Z,100469.09
2023-12-30T11:46:31.407Z,100463.19
2023-12-30T11:48:58.170Z,100478.41
2023-12-30T11:51:33.537Z,100469.00
2023-12-30T11:54:06.488Z,100476.25
2023-12-30T11:56:34.031Z,100476.94
2023-12-30T11:59:01.644Z,100474.00
2023-12-30T12:01:28.179Z,100477.63
2023-12-30T12:03:54.965Z,100480.03
2023-12-30T12:06:21.569Z,100475.69
2023-12-30T12:08:48.524Z,100480.25
2023-12-30T12:11:15.112Z,100472.06
2023-12-30T12:13:42.020Z,100468.66
2023-12-30T12:16:09.025Z,100474.56
2023-12-30T12:18:36.123Z,100469.00
2023-12-30T12:21:05.070Z,100465.00
2023-12-30T12:23:32.264Z,100463.41
2023-12-30T12:25:59.939Z,100468.66
2023-12-30T12:28:26.657Z,100469.88
2023-12-30T12:30:53.243Z,100473.75
2023-12-30T12:33:20.417Z,100475.81
2023-12-30T12:35:47.110Z,100462.59
2023-12-30T12:38:13.579Z,100471.22
2023-12-30T12:40:40.182Z,100469.19
2023-12-30T12:43:08.414Z,100472.38
2023-12-30T12:45:36.185Z,100471.56
2023-12-30T12:48:03.255Z,100477.25
2023-12-30T12:50:33.048Z,100484.31
2023-12-30T12:52:59.792Z,100484.66
2023-12-30T12:55:26.473Z,100482.84
2023-12-30T12:57:53.046Z,100475.16
2023-12-30T13:00:19.607Z,100491.44
2023-12-30T13:02:46.369Z,100483.94
2023-12-30T13:05:16.630Z,100482.34
2023-12-30T13:07:44.553Z,100483.81
2023-12-30T13:10:29.823Z,100480.97
2023-12-30T13:12:56.589Z,100481.53
2023-12-30T13:15:25.932Z,100484.28
2023-12-30T13:17:53.064Z,100476.78
2023-12-30T13:20:19.686Z,100485.44
2023-12-30T13:22:46.261Z,100479.84
2023-12-30T13:25:14.724Z,100482.59
2023-12-30T13:27:41.338Z,100487.91
2023-12-30T13:30:08.352Z,100487.91
2023-12-30T13:32:36.365Z,100507.38
2023-12-30T13:35:03.356Z,100508.16
2023-12-30T13:37:29.994Z,100498.34
2023-12-30T13:39:59.915Z,100506.78
2023-12-30T13:42:26.528Z,100516.44
2023-12-30T13:44:57.332Z,100516.69
2023-12-30T13:47:41.460Z,100506.25
2023-12-30T13:50:17.502Z,100526.25
2023-12-30T13:52:44.233Z,100531.72
2023-12-30T13:55:19.182Z,100523.75
2023-12-30T13:57:47.224Z,100537.09
2023-12-30T14:00:15.435Z,100521.03
2023-12-30T14:02:44.585Z,100525.69
2023-12-30T14:05:19.835Z,100534.34
2023-12-30T14:07:46.680Z,100533.44
2023-12-30T14:10:19.408Z,100526.75
2023-12-30T14:12:46.725Z,100546.00
2023-12-30T14:15:14.460Z,100548.50
2023-12-30T14:17:43.835Z,100554.06
2023-12-30T14:20:11.835Z,100559.44
2023-12-30T14:22:38.512Z,100560.69
2023-12-30T14:25:12.307Z,100552.72
2023-12-30T14:27:41.398Z,100557.50
2023-12-30T14:30:08.425Z,100556.59
2023-12-30T14:32:35.286Z,100557.50
2023-12-30T14:35:02.136Z,100565.03
2023-12-30T14:37:29.194Z,100558.78
2023-12-30T14:39:55.955Z,100555.81
2023-12-30T14:42:22.464Z,100565.72
2023-12-30T14:44:49.179Z,100574.59
2023-12-30T14:47:15.985Z,100572.78
2023-12-30T14:49:42.585Z,100571.31
2023-12-30T14:52:09.075Z,100581.91
2023-12-30T14:54:36.018Z,100585.53
2023-12-30T14:57:03.862Z,100587.22
2023-12-30T14:59:30.354Z,100599.31
2023-12-30T15:01:58.379Z,100591.94
2023-12-30T15:04:25.258Z,100600.13
2023-12-30T15:06:52.100Z,100602.41
2023-12-30T15:09:18.722Z,100604.31
2023-12-30T15:11:45.976Z,100604.31
2023-12-30T15:14:12.480Z,100616.06
2023-12-30T15:16:39.168Z,100616.53
2023-12-30T15:19:06.031Z,100622.69
2023-12-30T15:21:35.301Z,100613.69
2023-12-30T15:24:02.270Z,100620.72
2023-12-30T15:26:28.803Z,100622.69
2023-12-30T15:28:55.932Z,100626.41
2023-12-30T15:31:23.194Z,100627.22
2023-12-30T15:33:50.110Z,100633.72
2023-12-30T15:36:16.821Z,100630.19
2023-12-30T15:38:43.257Z,100638.97
2023-12-30T15:41:09.986Z,100641.13
2023-12-30T15:43:36.524Z,100642.47
2023-12-30T15:46:03.582Z,100647.25
2023-12-30T15:48:30.422Z,100641.13
2023-12-30T15:50:57.870Z,100638.16
2023-12-30T15:53:24.423Z,100634.84
2023-12-30T15:55:51.136Z,100644.03
2023-12-30T15:58:18.290Z,100649.41
2023-12-30T16:00:45.376Z,100645.97
2023-12-30T16:03:15.143Z,100638.78
2023-12-30T16:05:42.714Z,100648.00
2023-12-30T16:08:10.714Z,100645.28
2023-12-30T16:10:37.429Z,100644.47
2023-12-30T16:13:04.358Z,100652.19
2023-12-30T16:15:34.588Z,100640.69
2023-12-30T16:18:02.050Z,100649.19
2023-12-30T16:20:28.653Z,100644.53
2023-12-30T16:22:55.210Z,100638.97
2023-12-30T16:25:21.690Z,100649.06
2023-12-30T16:27:49.209Z,100650.66
2023-12-30T16:30:16.330Z,100653.72
2023-12-30T16:32:43.027Z,100660.34
2023-12-30T16:35:10.026Z,100657.47
2023-12-30T16:37:37.094Z,100663.41
2023-12-30T16:40:05.742Z,100658.28
2023-12-30T16:42:32.597Z,100658.97
2023-12-30T16:45:00.372Z,100661.91
2023-12-30T16:47:27.319Z,100656.63
2023-12-30T16:49:54.114Z,100661.75
2023-12-30T16:52:20.712Z,100661.28
2023-12-30T16:54:47.400Z,100659.44
2023-12-30T16:57:13.890Z,100666.38
2023-12-30T16:59:40.538Z,100655.31
2023-12-30T17:02:07.249Z,100657.00
2023-12-30T17:04:33.904Z,100666.50
2023-12-30T17:07:00.410Z,100663.53
2023-12-30T17:09:27.011Z,100664.25
2023-12-30T17:11:53.472Z,100667.50
2023-12-30T17:14:19.997Z,100669.63
2023-12-30T17:16:46.777Z,100662.63
2023-12-30T17:19:13.495Z,100663.78
2023-12-30T17:21:39.965Z,100655.94
2023-12-30T17:24:08.249Z,100666.03
2023-12-30T17:26:34.786Z,100662.38
2023-12-30T17:29:01.212Z,100665.88
2023-12-30T17:31:27.827Z,100664.63
2023-12-30T17:33:54.409Z,100665.56
2023-12-30T17:36:21.142Z,100672.63
2023-12-30T17:38:50.179Z,100673.72
2023-12-30T17:41:16.657Z,100669.75
2023-12-30T17:43:44.276Z,100662.06
2023-12-30T17:46:10.776Z,100662.53
2023-12-30T17:48:37.497Z,100665.38
2023-12-30T17:51:04.165Z,100668.91
2023-12-30T17:53:32.160Z,100661.38
2023-12-30T17:55:58.713Z,100660.25
2023-12-30T17:58:25.228Z,100657.84
2023-12-30T18:00:51.723Z,100659.47
2023-12-30T18:03:18.280Z,100661.25
2023-12-30T18:05:44.831Z,100664.31
2023-12-30T18:08:11.908Z,100664.00
2023-12-30T18:10:38.459Z,100663.28
2023-12-30T18:13:05.231Z,100664.28
2023-12-30T18:15:32.249Z,100670.06
2023-12-30T18:17:58.809Z,100667.69
2023-12-30T18:20:25.586Z,100667.06
2023-12-30T18:22:52.342Z,100663.41
2023-12-30T18:25:19.124Z,100656.88
2023-12-30T18:27:45.615Z,100652.09
2023-12-30T18:30:13.178Z,100651.75
2023-12-30T18:32:39.977Z,100652.75
2023-12-30T18:35:07.120Z,100659.97
2023-12-30T18:37:33.641Z,100657.88
2023-12-30T18:40:00.947Z,100662.84
2023-12-30T18:42:27.396Z,100654.41
2023-12-30T18:44:53.816Z,100660.97
2023-12-30T18:47:20.246Z,100662.75
2023-12-30T18:49:46.652Z,100657.97
2023-12-30T18:52:15.460Z,100654.09
2023-12-30T18:54:41.918Z,100664.06
2023-12-30T18:57:08.304Z,100655.88
2023-12-30T18:59:34.874Z,100665.47
2023-12-30T19:02:01.980Z,100658.78
2023-12-30T19:04:29.922Z,100663.41
2023-12-30T19:06:56.675Z,100659.88
2023-12-30T19:09:23.080Z,100665.66
2023-12-30T19:11:49.485Z,100657.34
2023-12-30T19:14:15.984Z,100660.69
2023-12-30T19:16:42.564Z,100660.69
2023-12-30T19:19:08.974Z,100659.13
2023-12-30T19:21:35.983Z,100663.91
2023-12-30T19:24:05.249Z,100655.91
2023-12-30T19:26:31.887Z,100661.50
2023-12-30T19:28:58.454Z,100660.03
2023-12-30T19:31:25.032Z,100670.28
2023-12-30T19:33:51.765Z,100669.63
2023-12-30T19:36:18.746Z,100667.53
2023-12-30T19:38:45.676Z,100672.66
2023-12-30T19:41:12.439Z,100666.88
2023-12-30T19:43:38.939Z,100666.56
2023-12-30T19:46:07.510Z,100659.19
2023-12-30T19:48:35.282Z,100663.50
2023-12-30T19:51:04.851Z,100656.47
2023-12-30T19:53:32.515Z,100662.41
2023-12-30T19:55:59.104Z,100649.25
2023-12-30T19:58:27.906Z,100652.44
2023-12-30T20:00:54.409Z,100658.22
2023-12-30T20:03:20.913Z,100658.22
2023-12-30T20:05:47.617Z,100651.97
2023-12-30T20:08:14.181Z,100655.81
2023-12-30T20:10:40.752Z,100658.06
2023-12-30T20:13:07.435Z,100657.41
2023-12-30T20:15:34.076Z,100653.44
2023-12-30T20:18:01.111Z,100650.06
2023-12-30T20:20:27.639Z,100643.47
2023-12-30T20:22:54.092Z,100643.94
2023-12-30T20:25:20.618Z,100637.41
2023-12-30T20:27:47.059Z,100642.19
2023-12-30T20:30:13.932Z,100646.16
2023-12-30T20:32:41.508Z,100649.22
2023-12-30T20:35:08.150Z,100648.56
2023-12-30T20:37:34.589Z,100647.44
2023-12-30T20:40:01.022Z,100639.41
2023-12-30T20:42:30.058Z,100640.03
2023-12-30T20:44:56.962Z,100645.94
2023-12-30T20:47:23.888Z,100647.38
2023-12-30T20:49:51.266Z,100648.28
2023-12-30T20:52:20.101Z,100643.91
2023-12-30T20:54:46.538Z,100647.41
2023-12-30T20:57:13.068Z,100652.53
2023-12-30T20:59:41.632Z,100655.50
2023-12-30T21:02:08.263Z,100652.47
2023-12-30T21:04:36.010Z,100653.72
2023-12-30T21:07:02.630Z,100651.16
2023-12-30T21:09:29.113Z,100646.03
2023-12-30T21:11:56.646Z,100647.94
2023-12-30T21:14:23.143Z,100646.81
2023-12-30T21:16:50.837Z,100650.00
2023-12-30T21:19:17.664Z,100656.84
2023-12-30T21:21:44.219Z,100654.59
2023-12-30T21:24:10.621Z,100646.09
2023-12-30T21:26:37.081Z,100644.66
2023-12-30T21:29:03.515Z,100650.22
2023-12-30T21:31:30.238Z,100640.91
2023-12-30T21:33:56.818Z,100637.53
2023-12-30T21:36:23.844Z,100641.38
2023-12-30T21:38:50.321Z,100631.41
2023-12-30T21:41:25.990Z,100634.41
2023-12-30T21:43:52.601Z,100630.53
2023-12-30T21:46:19.191Z,100626.22
2023-12-30T21:48:45.932Z,100632.59
2023-12-30T21:51:14.356Z,100622.81
2023-12-30T21:53:44.442Z,100633.41
2023-12-30T21:56:11.832Z,100621.47
2023-12-30T21:58:38.681Z,100626.47
2023-12-30T22:01:05.210Z,100624.88
2023-12-30T22:03:31.850Z,100620.91
2023-12-30T22:05:58.326Z,100620.44
2023-12-30T22:08:24.728Z,100618.81
2023-12-30T22:10:51.126Z,100615.31
2023-12-30T22:13:17.653Z,100614.38
2023-12-30T22:15:44.163Z,100617.09
2023-12-30T22:18:10.771Z,100612.78
2023-12-30T22:20:37.716Z,100613.13
2023-12-30T22:23:04.578Z,100605.59
2023-12-30T22:25:31.275Z,100608.66
2023-12-30T22:27:57.837Z,100616.38
2023-12-30T22:30:24.315Z,100612.03
2023-12-30T22:32:50.769Z,100614.31
2023-12-30T22:35:17.259Z,100611.94
2023-12-30T22:37:43.868Z,100600.22
2023-12-30T22:40:10.825Z,100596.25
2023-12-30T22:42:38.755Z,100607.59
2023-12-30T22:45:06.768Z,100604.41
2023-12-30T22:47:33.289Z,100604.09
2023-12-30T22:49:59.856Z,100598.63
2023-12-30T22:52:26.357Z,100600.22
2023-12-30T22:54:52.868Z,100600.69
2023-12-30T22:57:19.303Z,100596.47
2023-12-30T22:59:45.754Z,100592.31
2023-12-30T23:02:12.390Z,100592.75
2023-12-30T23:04:38.832Z,100588.91
2023-12-30T23:07:05.371Z,100587.28
2023-12-30T23:09:32.128Z,100591.31
2023-12-30T23:11:58.543Z,100586.63
2023-12-30T23:14:26.113Z,100589.81
2023-12-30T23:16:53.501Z,100590.44
2023-12-30T23:19:20.070Z,100589.63
2023-12-30T23:21:46.755Z,100585.44
2023-12-30T23:24:13.279Z,100581.56
2023-12-30T23:26:39.800Z,100583.63
2023-12-30T23:29:06.675Z,100577.84
2023-12-30T23:31:33.148Z,100590.78
2023-12-30T23:33:59.678Z,100584.09
2023-12-30T23:36:27.012Z,100567.38
2023-12-30T23:38:53.499Z,100575.56
2023-12-30T23:41:19.909Z,100578.44
2023-12-30T23:43:46.415Z,100569.44
2023-12-30T23:46:13.161Z,100562.41
2023-12-30T23:48:39.776Z,100565.13
2023-12-30T23:51:06.244Z,100563.06
2023-12-30T23:53:32.692Z,100560.66
2023-12-30T23:56:02.953Z,100565.34
2023-12-30T23:58:29.393Z,100564.41
